createdAt,value
2019-06-27T00:12:56.230Z,15.87
2019-06-27T00:16:01.535Z,12.20
2019-06-27T01:54:56.236Z,13.67
2019-06-27T02:53:33.798Z,14.60
2019-06-27T03:39:54.404Z,14.00
2019-06-27T03:42:59.152Z,15.57
2019-06-27T03:46:03.994Z,16.60
2019-06-27T03:52:13.847Z,14.80
2019-06-27T05:30:57.626Z,17.10
2019-06-27T05:34:03.046Z,14.73
2019-06-27T07:09:43.782Z,12.90
2019-06-27T07:15:54.828Z,12.37
2019-06-27T07:19:00.609Z,14.53
2019-06-27T07:22:05.508Z,13.03
2019-06-27T09:06:58.079Z,9.83
2019-06-27T09:22:23.785Z,9.10
2019-06-27T09:40:53.873Z,8.57
2019-06-27T09:53:14.899Z,7.63
2019-06-27T10:54:57.795Z,5.10
2019-06-27T10:58:02.920Z,5.53
2019-06-27T11:22:43.783Z,3.30
2019-06-27T11:28:54.132Z,3.37
2019-06-27T11:47:24.224Z,4.23
2019-06-27T11:53:34.151Z,3.47
2019-06-27T12:05:54.000Z,3.50
2019-06-27T12:42:56.136Z,5.13
2019-06-27T13:53:53.847Z,1.60
2019-06-27T14:30:56.913Z,1.70
2019-06-27T14:52:35.063Z,2.27
2019-06-27T15:04:54.553Z,1.77
2019-06-27T15:35:52.178Z,1.20
2019-06-27T15:51:14.187Z,0.60
2019-06-27T16:18:59.565Z,3.90
2019-06-27T18:06:55.933Z,2.00
2019-06-27T18:10:00.838Z,1.10
2019-06-27T20:04:34.265Z,2.03
2019-06-27T20:13:50.533Z,2.87
2019-06-27T20:16:55.567Z,2.20
2019-06-27T20:20:00.428Z,4.40
2019-06-27T20:23:05.509Z,2.73
2019-06-27T20:26:10.326Z,2.83
2019-06-27T20:29:15.494Z,3.60
2019-06-27T20:32:20.328Z,2.53
2019-06-27T20:35:25.085Z,2.03
2019-06-27T20:38:35.041Z,2.40
2019-06-27T20:41:36.310Z,2.77
2019-06-27T20:44:41.096Z,4.33
2019-06-27T20:47:46.077Z,4.03
2019-06-27T20:50:51.398Z,4.37
2019-06-27T20:53:56.236Z,5.17
2019-06-27T20:57:01.093Z,3.07
2019-06-27T21:00:06.576Z,2.53
2019-06-27T21:03:11.821Z,3.03
2019-06-27T21:06:16.801Z,2.50
2019-06-27T21:09:21.975Z,3.70
2019-06-27T21:12:26.729Z,5.93
2019-06-27T21:15:31.685Z,2.73
2019-06-27T21:18:36.613Z,5.17
2019-06-27T21:21:41.387Z,2.57
2019-06-27T21:24:46.510Z,2.17
2019-06-27T21:27:51.543Z,2.73
2019-06-27T21:30:56.308Z,2.77
2019-06-27T21:34:01.409Z,4.10
2019-06-27T21:37:06.303Z,4.43
2019-06-27T21:40:11.271Z,3.83
2019-06-27T21:43:17.409Z,3.60
2019-06-27T21:46:22.577Z,4.00
2019-06-27T21:49:27.425Z,4.97
2019-06-27T21:52:32.268Z,4.70
2019-06-27T21:55:37.080Z,6.03
2019-06-27T21:58:41.959Z,4.40
2019-06-27T22:01:47.221Z,4.40
2019-06-27T22:04:51.990Z,4.07
2019-06-27T22:07:56.826Z,3.40
2019-06-27T22:11:02.455Z,2.67
2019-06-27T22:14:07.750Z,6.87
2019-06-27T22:17:12.630Z,4.07
2019-06-27T22:20:17.709Z,2.50
2019-06-27T22:23:22.861Z,2.47
2019-06-27T22:26:27.998Z,2.50
2019-06-27T22:29:32.737Z,6.30
2019-06-27T22:32:37.547Z,4.23
2019-06-27T22:35:42.412Z,7.40
2019-06-27T22:39:05.100Z,3.30
2019-06-27T22:42:28.099Z,4.60
2019-06-27T22:45:51.081Z,5.50
2019-06-27T22:48:58.599Z,3.03
2019-06-27T22:52:15.362Z,2.53
2019-06-27T22:55:22.318Z,2.57
2019-06-27T22:58:27.431Z,3.80
2019-06-27T23:01:32.501Z,5.53
2019-06-27T23:04:37.343Z,3.27
2019-06-27T23:07:43.395Z,4.87
2019-06-27T23:10:48.445Z,2.63
2019-06-27T23:13:53.353Z,5.20
2019-06-27T23:16:59.196Z,8.23
2019-06-27T23:20:04.338Z,5.20
2019-06-27T23:23:09.137Z,4.43
2019-06-27T23:26:14.892Z,3.17
2019-06-27T23:29:19.904Z,4.83
2019-06-27T23:32:25.173Z,3.30
2019-06-27T23:35:30.376Z,3.80
2019-06-27T23:38:35.170Z,6.10
2019-06-27T23:41:40.240Z,4.10
2019-06-27T23:44:45.320Z,2.40
2019-06-27T23:47:50.192Z,3.00
2019-06-27T23:50:54.918Z,4.17
2019-06-27T23:53:59.927Z,3.77
2019-06-27T23:57:06.030Z,3.33
